Time;durP1;ratioP1;P1;durP2;ratioP2;P2;SDS_P1;SDS_P2;PMS_P1;PMS_P2;Temp;Humidity;BMP_temperature;BMP_pressure;BME280_temperature;BME280_humidity;BME280_pressure;Samples;Min_cycle;Max_cycle;Signal;HPM_P1;HPM_P2
2023/10/07 01:26:00;;;;;;;25.33;9.98;;;15.50;99.90;;;;;;3646375;23;20995;-77
2023/10/07 01:28:26;;;;;;;24.55;10.20;;;15.40;99.90;;;;;;4805356;29;20058;-77
2023/10/07 01:31:10;;;;;;;21.02;9.68;;;15.50;99.90;;;;;;4820038;29;20069;-76
2023/10/07 01:33:39;;;;;;;25.35;10.07;;;15.50;99.90;;;;;;4825370;29;20050;-77
2023/10/07 01:36:10;;;;;;;21.83;9.48;;;15.50;99.90;;;;;;4823344;29;20053;-77
2023/10/07 01:38:41;;;;;;;20.15;9.95;;;15.50;99.90;;;;;;4808513;29;20097;-77
2023/10/07 01:41:14;;;;;;;25.90;10.23;;;15.50;99.90;;;;;;4822050;23;20050;-82
2023/10/07 01:43:40;;;;;;;17.65;9.18;;;15.50;99.90;;;;;;4834445;29;20485;-82
2023/10/07 01:46:10;;;;;;;21.20;9.60;;;15.50;99.90;;;;;;4801114;29;20038;-82
2023/10/07 01:48:37;;;;;;;20.48;9.52;;;15.60;99.90;;;;;;4794183;29;20456;-82
2023/10/07 01:51:05;;;;;;;22.90;9.55;;;15.50;99.90;;;;;;4806047;29;20508;-82
2023/10/07 01:53:32;;;;;;;21.98;9.90;;;15.60;99.90;;;;;;4809830;29;20392;-82
2023/10/07 01:55:58;;;;;;;20.48;9.23;;;15.60;99.90;;;;;;4803932;29;20051;-85
2023/10/07 01:58:25;;;;;;;21.23;9.70;;;15.60;99.90;;;;;;4809676;29;20160;-82
2023/10/07 02:00:57;;;;;;;20.83;9.55;;;15.70;99.90;;;;;;4824502;29;20413;-82
2023/10/07 02:03:23;;;;;;;22.80;9.77;;;15.60;99.90;;;;;;4831294;29;20088;-82
2023/10/07 02:05:50;;;;;;;23.13;9.55;;;15.60;99.90;;;;;;4814915;29;20395;-81
2023/10/07 02:08:23;;;;;;;21.40;9.38;;;15.70;99.90;;;;;;4804930;29;20038;-82
2023/10/07 02:10:57;;;;;;;25.70;10.48;;;15.70;99.90;;;;;;4824168;29;20049;-82
2023/10/07 02:13:23;;;;;;;20.15;9.13;;;15.60;99.90;;;;;;4809361;29;20047;-82
2023/10/07 02:15:54;;;;;;;25.98;10.63;;;15.70;99.90;;;;;;4809071;29;20187;-82
2023/10/07 02:18:21;;;;;;;22.73;10.30;;;15.70;99.90;;;;;;4808990;29;20480;-82
2023/10/07 02:20:49;;;;;;;21.95;9.95;;;15.70;99.90;;;;;;4809131;29;20366;-82
2023/10/07 02:23:35;;;;;;;22.65;9.80;;;15.70;99.90;;;;;;4809191;29;20525;-82
2023/10/07 02:26:04;;;;;;;24.45;9.65;;;15.70;99.90;;;;;;4807922;29;20100;-82
2023/10/07 02:28:33;;;;;;;22.17;10.25;;;15.70;99.90;;;;;;4826212;29;20046;-82
2023/10/07 02:31:00;;;;;;;23.40;10.35;;;15.70;99.90;;;;;;4814571;29;20054;-82
2023/10/07 02:33:27;;;;;;;22.17;10.32;;;15.80;99.90;;;;;;4809012;29;20084;-82
2023/10/07 02:35:55;;;;;;;21.27;10.18;;;15.80;99.90;;;;;;4797107;29;20054;-82
2023/10/07 02:38:27;;;;;;;19.48;10.35;;;15.80;99.90;;;;;;4798206;29;20039;-82
2023/10/07 02:40:58;;;;;;;19.17;9.88;;;15.80;99.90;;;;;;4823220;29;20054;-82
2023/10/07 02:43:27;;;;;;;21.80;10.27;;;15.80;99.90;;;;;;4831686;29;20054;-82
2023/10/07 02:45:53;;;;;;;25.02;10.30;;;15.80;99.90;;;;;;4823333;29;20065;-82
2023/10/07 02:48:19;;;;;;;24.00;10.73;;;15.80;99.90;;;;;;4807427;29;20481;-82
2023/10/07 02:50:45;;;;;;;25.45;10.80;;;15.90;99.90;;;;;;4809054;29;20099;-82
2023/10/07 02:53:14;;;;;;;20.10;9.73;;;15.90;99.90;;;;;;4814361;29;20048;-82
2023/10/07 02:55:58;;;;;;;25.17;10.82;;;15.90;99.90;;;;;;4825947;29;20048;-82
2023/10/07 02:58:32;;;;;;;24.85;10.32;;;15.90;99.90;;;;;;4810614;29;20043;-82
2023/10/07 03:01:10;;;;;;;25.25;10.60;;;15.90;99.90;;;;;;4808461;29;20045;-82
2023/10/07 03:03:38;;;;;;;20.08;9.90;;;16.00;99.90;;;;;;4808162;29;20057;-82
2023/10/07 03:06:07;;;;;;;25.00;10.07;;;16.00;99.90;;;;;;4808227;29;20053;-81
2023/10/07 03:11:12;;;;;;;20.75;9.95;;;16.00;99.90;;;;;;4827000;29;20054;-82
2023/10/07 03:13:49;;;;;;;23.98;10.07;;;16.00;99.90;;;;;;4808456;29;20053;-82
2023/10/07 03:19:05;;;;;;;19.92;9.75;;;16.00;99.90;;;;;;4823014;29;20089;-82
2023/10/07 03:24:11;;;;;;;20.58;9.85;;;16.00;99.90;;;;;;4826770;29;20053;-82
2023/10/07 03:26:38;;;;;;;20.00;9.35;;;16.00;99.90;;;;;;4808080;29;20046;-82
2023/10/07 03:29:04;;;;;;;21.30;9.57;;;16.00;99.90;;;;;;4815605;29;20535;-82
2023/10/07 03:34:12;;;;;;;22.02;10.00;;;16.00;99.90;;;;;;4819018;29;20417;-82
2023/10/07 03:36:41;;;;;;;22.10;10.40;;;16.00;99.90;;;;;;4807801;29;20134;-82
2023/10/07 03:41:47;;;;;;;22.77;10.18;;;16.10;99.90;;;;;;4822778;29;20054;-82
2023/10/07 03:44:17;;;;;;;22.05;10.38;;;16.10;99.90;;;;;;4808071;29;20046;-82
2023/10/07 03:46:48;;;;;;;21.35;10.15;;;16.00;99.90;;;;;;4804032;29;20043;-82
2023/10/07 03:49:15;;;;;;;20.45;9.52;;;16.10;99.90;;;;;;4803929;29;20042;-82
2023/10/07 03:51:48;;;;;;;19.15;9.20;;;16.00;99.90;;;;;;4822979;29;20065;-82
2023/10/07 03:54:29;;;;;;;21.95;10.68;;;16.10;99.90;;;;;;4808078;29;20042;-82
2023/10/07 03:56:56;;;;;;;22.92;10.23;;;16.00;99.90;;;;;;4806912;29;20046;-82
2023/10/07 03:59:22;;;;;;;21.42;10.45;;;16.10;99.90;;;;;;4806721;29;20405;-82
2023/10/07 04:01:53;;;;;;;21.75;9.40;;;16.10;99.90;;;;;;4802552;29;20054;-82
2023/10/07 04:04:22;;;;;;;22.77;9.80;;;16.10;99.90;;;;;;4807088;29;20107;-82
2023/10/07 04:06:48;;;;;;;21.90;10.93;;;16.10;99.90;;;;;;4807299;29;20118;-82
2023/10/07 04:09:14;;;;;;;21.63;10.40;;;16.10;99.90;;;;;;4807228;29;20049;-82
2023/10/07 04:11:50;;;;;;;22.77;10.23;;;16.10;99.90;;;;;;4806904;29;20046;-82
2023/10/07 04:14:22;;;;;;;22.27;10.88;;;16.10;99.90;;;;;;4815106;29;20116;-82
2023/10/07 04:16:52;;;;;;;25.63;10.82;;;16.10;99.90;;;;;;4807198;29;20107;-82
2023/10/07 04:21:46;;;;;;;20.80;9.95;;;16.10;99.90;;;;;;4822354;29;20058;-82
2023/10/07 04:24:12;;;;;;;23.13;10.80;;;16.10;99.90;;;;;;4822964;29;20042;-82
2023/10/07 04:26:39;;;;;;;19.05;10.43;;;16.20;99.90;;;;;;4807241;29;20483;-82
2023/10/07 04:29:14;;;;;;;20.33;10.88;;;16.20;99.90;;;;;;4805788;29;20557;-82
2023/10/07 04:31:51;;;;;;;22.33;10.68;;;16.20;99.90;;;;;;4806738;29;20034;-81
2023/10/07 04:34:21;;;;;;;24.02;10.20;;;16.20;99.90;;;;;;4806863;29;20087;-82
2023/10/07 04:42:20;;;;;;;25.73;10.43;;;16.20;99.90;;;;;;4840528;29;20098;-81
2023/10/07 04:52:27;;;;;;;23.25;10.40;;;16.20;99.90;;;;;;4829111;29;20046;-82
2023/10/07 04:54:53;;;;;;;17.48;9.27;;;16.20;99.90;;;;;;4819077;29;20049;-81
2023/10/07 04:57:39;;;;;;;24.58;10.05;;;16.20;99.90;;;;;;4836694;29;20423;-82
2023/10/07 05:00:09;;;;;;;22.67;9.75;;;16.20;99.90;;;;;;4822082;29;20111;-82
2023/10/07 05:02:35;;;;;;;19.35;9.60;;;16.20;99.90;;;;;;4806850;29;20047;-82
2023/10/07 05:05:10;;;;;;;21.45;9.55;;;16.10;99.90;;;;;;4806430;29;20138;-82
2023/10/07 05:07:38;;;;;;;21.65;9.68;;;16.10;99.90;;;;;;4815835;29;20409;-81
2023/10/07 05:10:07;;;;;;;22.45;10.32;;;16.10;99.90;;;;;;4811361;29;20055;-82
2023/10/07 05:12:33;;;;;;;18.70;9.30;;;16.00;99.90;;;;;;4806987;29;20050;-84
2023/10/07 05:15:00;;;;;;;17.25;9.40;;;16.00;99.90;;;;;;4807379;29;20047;-82
2023/10/07 05:17:29;;;;;;;21.65;9.90;;;16.10;99.90;;;;;;4814484;29;20046;-82
2023/10/07 05:19:58;;;;;;;24.20;10.13;;;16.00;99.90;;;;;;4809562;29;20368;-82
2023/10/07 05:22:24;;;;;;;24.65;9.95;;;16.00;99.90;;;;;;4810370;29;20409;-82
2023/10/07 05:24:57;;;;;;;22.48;10.32;;;16.00;99.90;;;;;;4825172;29;20050;-82
2023/10/07 05:27:23;;;;;;;20.88;9.63;;;16.00;99.90;;;;;;4806837;29;20042;-82
2023/10/07 05:29:49;;;;;;;25.23;10.57;;;16.00;99.90;;;;;;4823210;29;20077;-82
2023/10/07 05:32:17;;;;;;;22.00;9.90;;;16.00;99.90;;;;;;4832634;29;20081;-82
2023/10/07 05:34:45;;;;;;;26.98;10.18;;;16.00;99.90;;;;;;4835009;29;20125;-82
2023/10/07 05:38:07;;;;;;;;;;;;;;;;;;;;;
2023/10/07 05:40:33;;;;;;;20.60;11.00;;;15.90;99.90;;;;;;4816539;29;20057;-82
2023/10/07 05:43:00;;;;;;;23.35;10.13;;;15.90;99.90;;;;;;4838169;29;20045;-82
2023/10/07 05:45:50;;;;;;;18.75;10.88;;;15.90;99.90;;;;;;4836173;29;20038;-82
2023/10/07 05:48:48;;;;;;;24.33;10.82;;;15.90;99.90;;;;;;4824269;29;20047;-83
2023/10/07 05:52:01;;;;;;;;;;;;;;;;;;;;;
2023/10/07 05:55:02;;;;;;;24.23;11.52;;;15.80;99.90;;;;;;4825965;29;20058;-82
2023/10/07 05:57:45;;;;;;;24.33;11.50;;;15.80;99.90;;;;;;4809661;29;20058;-82
2023/10/07 06:03:46;;;;;;;21.83;11.40;;;15.80;99.90;;;;;;4824645;29;20065;-82
2023/10/07 06:06:15;;;;;;;19.35;11.55;;;15.80;99.90;;;;;;4817884;29;20042;-82
2023/10/07 06:09:15;;;;;;;20.92;11.60;;;15.80;99.90;;;;;;4809372;29;20033;-82
2023/10/07 06:11:48;;;;;;;25.40;11.65;;;15.90;99.90;;;;;;4828266;29;20058;-83
2023/10/07 06:14:24;;;;;;;22.85;11.25;;;15.90;99.90;;;;;;4824731;29;20129;-82
2023/10/07 06:16:52;;;;;;;26.02;12.20;;;15.90;99.90;;;;;;4821663;29;20050;-82
2023/10/07 06:19:18;;;;;;;24.35;11.63;;;15.90;99.90;;;;;;4824046;29;20058;-82
2023/10/07 06:21:56;;;;;;;23.52;11.70;;;15.90;99.90;;;;;;4825813;29;20052;-82
2023/10/07 06:25:04;;;;;;;29.63;13.10;;;15.90;99.90;;;;;;4802327;29;20039;-82
2023/10/07 06:27:36;;;;;;;24.63;12.00;;;16.00;99.90;;;;;;4779745;29;20112;-82
2023/10/07 06:30:25;;;;;;;22.47;11.97;;;15.90;99.90;;;;;;4812966;29;20054;-82
2023/10/07 06:33:03;;;;;;;24.38;11.50;;;16.00;99.90;;;;;;4832714;29;20046;-82
2023/10/07 06:35:37;;;;;;;29.48;11.27;;;16.00;99.90;;;;;;4824337;29;20050;-82
2023/10/07 06:38:34;;;;;;;21.33;11.10;;;16.00;99.90;;;;;;4823630;29;20523;-82
2023/10/07 06:41:23;;;;;;;24.45;10.90;;;15.90;99.90;;;;;;4794600;29;20522;-82
2023/10/07 06:44:02;;;;;;;24.80;12.20;;;15.90;99.90;;;;;;4825010;29;20053;-82
2023/10/07 06:46:41;;;;;;;24.08;12.40;;;15.90;99.90;;;;;;4806124;29;20565;-82
2023/10/07 06:49:18;;;;;;;31.27;11.57;;;16.00;99.90;;;;;;4823414;29;20046;-82
2023/10/07 06:51:56;;;;;;;26.38;11.65;;;16.00;99.90;;;;;;4828332;29;20045;-82
2023/10/07 06:54:34;;;;;;;22.38;11.30;;;16.00;99.90;;;;;;4831147;29;20034;-82
2023/10/07 06:57:04;;;;;;;24.80;12.35;;;16.00;99.90;;;;;;4813814;29;20061;-82
2023/10/07 06:59:32;;;;;;;20.45;11.80;;;16.00;99.90;;;;;;4834598;29;20405;-82
2023/10/07 07:02:05;;;;;;;23.48;11.43;;;16.00;99.90;;;;;;4826965;29;20050;-82
2023/10/07 07:04:52;;;;;;;22.15;11.57;;;16.00;99.90;;;;;;4834397;29;20129;-81
2023/10/07 07:07:18;;;;;;;24.00;11.77;;;16.10;99.90;;;;;;4822262;29;20042;-81
2023/10/07 07:12:16;;;;;;;23.10;11.20;;;16.10;99.90;;;;;;4816491;29;20414;-82
2023/10/07 07:14:50;;;;;;;25.77;11.45;;;16.10;99.90;;;;;;4819872;29;20506;-83
2023/10/07 07:22:44;;;;;;;21.83;11.05;;;16.40;99.90;;;;;;4823172;29;20478;-81
2023/10/07 07:27:52;;;;;;;20.83;10.23;;;16.60;99.90;;;;;;4826624;29;20049;-84
2023/10/07 07:30:31;;;;;;;17.27;9.70;;;16.80;99.90;;;;;;4833555;29;20050;-83
2023/10/07 07:33:08;;;;;;;17.40;9.25;;;16.90;99.90;;;;;;4816748;29;20045;-83
2023/10/07 07:35:39;;;;;;;19.15;10.15;;;17.00;99.90;;;;;;4841009;29;20066;-84
2023/10/07 09:28:31;;;;;;;12.38;5.18;;;19.40;99.90;;;;;;4814648;29;20050;-79
2023/10/07 09:31:36;;;;;;;10.82;4.80;;;19.60;99.90;;;;;;4817348;29;20049;-79
2023/10/07 09:37:45;;;;;;;11.13;5.10;;;19.90;99.90;;;;;;4835735;29;20407;-76
2023/10/07 09:41:06;;;;;;;13.30;5.20;;;20.10;99.90;;;;;;4821881;29;20099;-76
2023/10/07 09:43:13;;;;;;;12.48;4.88;;;20.10;99.90;;;;;;4834176;29;20054;-76
2023/10/07 09:45:39;;;;;;;10.57;5.03;;;20.20;99.90;;;;;;4827753;29;20066;-76
2023/10/07 09:48:05;;;;;;;10.80;5.15;;;20.40;99.90;;;;;;4825895;29;20077;-76
2023/10/07 09:50:34;;;;;;;13.52;5.00;;;20.40;99.90;;;;;;4837986;29;20041;-77
2023/10/07 09:53:36;;;;;;;16.23;5.60;;;20.30;99.90;;;;;;4820530;29;20469;-76
2023/10/07 09:56:21;;;;;;;14.27;5.50;;;20.20;99.90;;;;;;4826337;29;20050;-77
2023/10/07 09:59:22;;;;;;;13.00;5.20;;;20.10;99.90;;;;;;4824103;29;20041;-77
2023/10/07 10:02:16;;;;;;;12.52;5.20;;;20.00;99.90;;;;;;4823885;29;20053;-77
2023/10/07 10:05:00;;;;;;;12.00;5.28;;;19.80;99.90;;;;;;4828508;29;20042;-77
2023/10/07 10:07:47;;;;;;;13.75;5.38;;;19.60;99.90;;;;;;4827311;29;20412;-77
2023/10/07 10:10:14;;;;;;;13.18;5.50;;;19.50;99.90;;;;;;4825803;29;20046;-78
2023/10/07 10:13:51;;;;;;;18.80;5.70;;;19.40;99.90;;;;;;4840127;29;20540;-77
2023/10/07 10:20:50;;;;;;;13.73;5.80;;;19.40;99.90;;;;;;4841709;29;20046;-77
2023/10/07 10:23:19;;;;;;;14.18;5.40;;;19.40;99.90;;;;;;4834540;29;20053;-77
2023/10/07 10:26:14;;;;;;;13.95;5.30;;;19.40;99.90;;;;;;4808555;29;20053;-77
2023/10/07 10:28:41;;;;;;;12.95;5.82;;;19.50;99.90;;;;;;4808907;29;20410;-78
2023/10/07 10:31:22;;;;;;;13.52;5.80;;;19.60;99.90;;;;;;4848765;29;20173;-76
2023/10/07 10:33:52;;;;;;;15.55;5.88;;;19.80;99.90;;;;;;4826067;29;20057;-76
2023/10/07 10:36:23;;;;;;;15.93;5.80;;;19.80;99.90;;;;;;4833965;29;20095;-76
2023/10/07 10:38:49;;;;;;;14.57;5.22;;;19.90;99.90;;;;;;4854848;29;20527;-76
2023/10/07 10:41:26;;;;;;;15.73;5.68;;;20.00;99.90;;;;;;4837279;29;20046;-76
2023/10/07 10:44:06;;;;;;;13.50;5.50;;;20.10;99.90;;;;;;4860688;29;20049;-76
2023/10/07 10:46:48;;;;;;;14.13;5.95;;;20.20;99.90;;;;;;4842229;29;20045;-76
2023/10/07 10:49:16;;;;;;;12.85;6.07;;;20.30;99.90;;;;;;4822119;29;20046;-77
2023/10/07 10:51:46;;;;;;;14.55;5.80;;;20.40;99.90;;;;;;4827166;29;20523;-77
2023/10/07 10:54:13;;;;;;;11.75;5.68;;;20.50;99.90;;;;;;4833212;29;20428;-75
2023/10/07 10:56:50;;;;;;;11.93;5.50;;;20.50;99.90;;;;;;4833836;29;20042;-77
2023/10/07 10:59:19;;;;;;;17.38;6.43;;;20.40;99.90;;;;;;4833895;29;20062;-77
2023/10/07 11:01:49;;;;;;;13.35;6.05;;;20.20;99.90;;;;;;4827435;29;20072;-76
2023/10/07 11:04:21;;;;;;;11.43;5.97;;;20.10;99.90;;;;;;4841270;29;20077;-78
2023/10/07 11:06:51;;;;;;;15.27;5.82;;;20.00;99.90;;;;;;4830655;29;20122;-77
2023/10/07 11:09:34;;;;;;;14.55;6.05;;;20.10;99.90;;;;;;4838401;29;20045;-77
2023/10/07 11:12:08;;;;;;;16.33;6.38;;;20.20;99.90;;;;;;4833972;29;20042;-77
2023/10/07 11:14:38;;;;;;;15.13;6.28;;;20.40;99.90;;;;;;4825941;29;20058;-77
2023/10/07 11:17:04;;;;;;;14.73;6.53;;;20.70;99.90;;;;;;4822502;29;20057;-77
2023/10/07 11:19:30;;;;;;;16.83;5.93;;;21.00;99.90;;;;;;4819648;29;20038;-77
2023/10/07 11:21:56;;;;;;;13.82;6.15;;;21.00;99.90;;;;;;4824501;29;20049;-78
2023/10/07 11:24:28;;;;;;;13.23;5.55;;;21.00;99.90;;;;;;4829697;29;20117;-77
2023/10/07 11:26:59;;;;;;;16.60;6.18;;;21.10;99.90;;;;;;4823380;29;20049;-77
2023/10/07 11:29:32;;;;;;;14.70;5.88;;;21.30;99.90;;;;;;4825578;29;20050;-77
2023/10/07 11:31:59;;;;;;;13.88;6.40;;;21.50;99.90;;;;;;4830526;29;20048;-77
2023/10/07 11:34:50;;;;;;;11.27;5.68;;;21.70;99.90;;;;;;4823574;29;20035;-77
2023/10/07 11:37:22;;;;;;;15.10;5.22;;;21.90;99.90;;;;;;4849780;29;20046;-77
2023/10/07 11:39:48;;;;;;;10.40;5.28;;;21.70;99.90;;;;;;4809256;29;20054;-78
2023/10/07 11:42:18;;;;;;;17.30;6.75;;;21.50;99.90;;;;;;4807611;29;20045;-78
2023/10/07 11:44:49;;;;;;;12.23;5.75;;;21.40;99.90;;;;;;4807804;29;20111;-77
2023/10/07 11:47:16;;;;;;;14.20;6.40;;;21.20;99.90;;;;;;4812702;29;20048;-77
2023/10/07 11:49:46;;;;;;;12.30;5.93;;;21.00;99.90;;;;;;4823152;29;20433;-76
2023/10/07 11:52:12;;;;;;;13.80;5.60;;;20.80;99.90;;;;;;4830751;29;20114;-77
2023/10/07 11:54:39;;;;;;;13.57;5.63;;;20.70;99.90;;;;;;4835463;29;20421;-77
2023/10/07 11:57:06;;;;;;;14.07;6.20;;;20.70;99.90;;;;;;4843689;29;20126;-76
2023/10/07 11:59:35;;;;;;;13.88;5.78;;;20.80;99.90;;;;;;4828014;29;20041;-76
2023/10/07 12:02:09;;;;;;;14.25;6.22;;;20.90;99.90;;;;;;4817305;29;20042;-77
2023/10/07 12:04:38;;;;;;;14.63;6.22;;;21.20;99.90;;;;;;4826643;29;20116;-77
2023/10/07 12:07:06;;;;;;;13.77;6.40;;;21.40;99.90;;;;;;4836283;29;20404;-77
2023/10/07 12:09:33;;;;;;;16.27;6.45;;;21.80;99.90;;;;;;4843572;29;20049;-77
2023/10/07 12:11:59;;;;;;;15.02;5.90;;;22.10;99.90;;;;;;4826234;29;20045;-77
2023/10/07 12:14:27;;;;;;;14.75;6.00;;;22.30;99.90;;;;;;4823843;29;20038;-77
2023/10/07 12:16:52;;;;;;;14.70;6.30;;;22.30;99.90;;;;;;4819880;29;20042;-77
2023/10/07 12:19:18;;;;;;;14.10;5.90;;;22.40;99.90;;;;;;4810389;29;20413;-77
2023/10/07 12:21:47;;;;;;;12.77;5.82;;;22.50;99.90;;;;;;4821715;29;20083;-76
2023/10/07 12:24:14;;;;;;;12.63;6.10;;;22.60;99.90;;;;;;4822730;29;20053;-76
2023/10/07 12:26:40;;;;;;;12.15;5.45;;;22.50;99.90;;;;;;4823052;29;20136;-78
2023/10/07 12:29:06;;;;;;;12.43;5.82;;;22.50;99.90;;;;;;4838430;29;20061;-76
2023/10/07 12:31:32;;;;;;;17.70;5.90;;;22.60;99.90;;;;;;4824216;29;20108;-78
2023/10/07 12:33:59;;;;;;;15.50;6.15;;;22.80;99.90;;;;;;4826192;29;20489;-77
2023/10/07 12:36:25;;;;;;;14.43;6.28;;;22.70;99.90;;;;;;4813650;29;20041;-77
2023/10/07 12:38:50;;;;;;;12.70;5.68;;;22.30;99.90;;;;;;4824254;29;20049;-77
2023/10/07 12:41:16;;;;;;;12.18;5.75;;;21.90;99.90;;;;;;4832384;29;20161;-77
2023/10/07 12:43:42;;;;;;;11.35;5.38;;;21.80;99.90;;;;;;4843012;29;20045;-77
2023/10/07 12:46:09;;;;;;;15.07;6.43;;;21.90;99.90;;;;;;4842973;29;20045;-77
2023/10/07 12:48:40;;;;;;;13.38;6.25;;;22.10;99.90;;;;;;4843078;29;20045;-77
2023/10/07 12:51:06;;;;;;;12.75;6.35;;;22.30;99.90;;;;;;4825924;29;21255;-75
2023/10/07 12:53:35;;;;;;;16.58;6.20;;;22.30;99.90;;;;;;4830415;29;20485;-76
2023/10/07 12:56:17;;;;;;;13.85;5.97;;;22.10;99.90;;;;;;4824593;29;20517;-77
2023/10/07 12:58:45;;;;;;;14.23;6.05;;;21.90;99.90;;;;;;4824922;29;20049;-77
2023/10/07 13:01:14;;;;;;;13.63;5.85;;;21.80;99.90;;;;;;4818893;29;20121;-77
2023/10/07 13:03:42;;;;;;;13.73;6.05;;;21.90;99.90;;;;;;4823533;29;20049;-76
2023/10/07 13:06:10;;;;;;;13.20;5.80;;;21.70;99.90;;;;;;4838495;29;20428;-76
2023/10/07 13:08:38;;;;;;;13.38;5.95;;;21.50;99.90;;;;;;4820244;29;20041;-76
2023/10/07 13:11:11;;;;;;;15.88;6.40;;;21.20;99.90;;;;;;4821277;29;20300;-76
2023/10/07 13:13:39;;;;;;;15.77;5.93;;;21.10;99.90;;;;;;4823832;29;20129;-76
2023/10/07 13:16:09;;;;;;;14.68;6.15;;;21.10;99.90;;;;;;4824633;29;20133;-76
2023/10/07 13:18:35;;;;;;;13.32;5.80;;;21.00;99.90;;;;;;4821046;29;20064;-76
2023/10/07 13:21:07;;;;;;;13.30;5.88;;;20.90;99.90;;;;;;4829016;29;20086;-77
2023/10/07 13:23:38;;;;;;;13.30;6.47;;;21.00;99.90;;;;;;4825338;29;20045;-76
2023/10/07 13:26:10;;;;;;;15.98;6.95;;;21.10;99.90;;;;;;4839116;29;20644;-76
2023/10/07 13:28:38;;;;;;;13.40;5.97;;;21.10;99.90;;;;;;4823939;29;20085;-76
2023/10/07 13:31:14;;;;;;;13.40;6.03;;;21.10;99.90;;;;;;4822420;29;20050;-76
2023/10/07 13:33:39;;;;;;;14.45;5.97;;;21.20;99.90;;;;;;4831457;29;20425;-75
2023/10/07 13:36:07;;;;;;;9.70;5.32;;;21.00;99.90;;;;;;4809831;29;20056;-76
2023/10/07 13:38:33;;;;;;;11.52;5.35;;;20.90;99.90;;;;;;4808171;29;20512;-76
2023/10/07 13:41:03;;;;;;;17.13;6.60;;;20.70;99.90;;;;;;4832203;29;20076;-76
2023/10/07 13:43:29;;;;;;;13.82;6.13;;;20.70;99.90;;;;;;4838423;29;20045;-76
2023/10/07 13:46:01;;;;;;;13.60;6.18;;;20.70;99.90;;;;;;4845851;29;20434;-76
2023/10/07 13:48:27;;;;;;;15.45;6.70;;;20.60;99.90;;;;;;4815561;29;20038;-76
2023/10/07 13:51:00;;;;;;;11.55;6.35;;;20.40;99.90;;;;;;4833714;29;20096;-76
2023/10/07 13:53:50;;;;;;;17.35;6.80;;;20.30;99.90;;;;;;4834535;29;20125;-76
2023/10/07 13:56:23;;;;;;;13.35;6.22;;;20.10;99.90;;;;;;4831114;29;20549;-76
2023/10/07 13:58:48;;;;;;;12.68;6.78;;;20.00;99.90;;;;;;4824880;29;20098;-76
2023/10/07 14:01:15;;;;;;;15.23;6.88;;;19.90;99.90;;;;;;4827052;29;20410;-76
2023/10/07 14:03:41;;;;;;;14.00;6.03;;;19.80;99.90;;;;;;4828177;29;20113;-76
2023/10/07 14:06:06;;;;;;;14.95;6.65;;;19.80;99.90;;;;;;4830520;29;20122;-77
2023/10/07 14:08:36;;;;;;;13.32;5.97;;;19.90;99.90;;;;;;4842559;29;20508;-76
2023/10/07 14:11:04;;;;;;;15.15;7.10;;;19.90;99.90;;;;;;4827604;29;20103;-76
2023/10/07 14:13:32;;;;;;;18.40;7.47;;;19.90;99.90;;;;;;4821308;29;20141;-76
2023/10/07 14:16:00;;;;;;;16.13;7.78;;;19.90;99.90;;;;;;4832691;29;20056;-76
2023/10/07 14:18:26;;;;;;;15.82;8.70;;;19.80;99.90;;;;;;4834491;29;20061;-76
2023/10/07 14:20:52;;;;;;;17.85;8.73;;;19.80;99.90;;;;;;4826310;29;20379;-76
2023/10/07 14:23:19;;;;;;;17.73;8.68;;;19.60;99.90;;;;;;4825601;29;20069;-77
2023/10/07 14:25:49;;;;;;;16.73;8.43;;;19.60;99.90;;;;;;4833853;29;20049;-76
2023/10/07 14:28:20;;;;;;;13.38;7.28;;;19.50;99.90;;;;;;4845492;29;20121;-76
2023/10/07 14:30:47;;;;;;;17.20;6.97;;;19.40;99.90;;;;;;4842426;29;20041;-76
2023/10/07 14:33:13;;;;;;;15.00;6.88;;;19.30;99.90;;;;;;4828797;29;20136;-76
2023/10/07 14:35:40;;;;;;;17.52;6.93;;;19.20;99.90;;;;;;4827747;29;20133;-76
2023/10/07 14:38:09;;;;;;;13.95;6.78;;;19.10;99.90;;;;;;4836073;29;20045;-76
2023/10/07 14:40:41;;;;;;;13.05;6.88;;;19.10;99.90;;;;;;4836779;29;20045;-76
2023/10/07 14:43:07;;;;;;;16.48;7.05;;;18.90;99.90;;;;;;4823987;29;20133;-76
2023/10/07 14:45:35;;;;;;;16.92;7.32;;;18.90;99.90;;;;;;4821197;29;20160;-76
2023/10/07 14:48:01;;;;;;;15.50;6.32;;;18.80;99.90;;;;;;4833569;29;20057;-76
2023/10/07 14:50:28;;;;;;;14.60;7.53;;;18.80;99.90;;;;;;4843035;29;20113;-76
2023/10/07 14:52:53;;;;;;;16.98;7.40;;;18.70;99.90;;;;;;4834457;29;20057;-75
2023/10/07 14:55:22;;;;;;;13.20;7.00;;;18.70;99.90;;;;;;4828149;29;20049;-76
2023/10/07 14:57:48;;;;;;;14.00;7.10;;;18.60;99.90;;;;;;4837876;29;20042;-76
2023/10/07 15:00:16;;;;;;;16.48;7.97;;;18.50;99.90;;;;;;4835723;29;20057;-76
2023/10/07 15:02:44;;;;;;;18.67;7.60;;;18.50;99.90;;;;;;4816841;29;20512;-75
2023/10/07 15:05:12;;;;;;;18.10;7.72;;;18.40;99.90;;;;;;4818966;29;20402;-75
2023/10/07 15:07:37;;;;;;;17.98;7.28;;;18.30;99.90;;;;;;4833888;29;20474;-76
2023/10/07 15:10:03;;;;;;;17.02;7.57;;;18.30;99.90;;;;;;4819424;29;20046;-76
2023/10/07 15:12:29;;;;;;;17.08;7.75;;;18.30;99.90;;;;;;4846574;29;20464;-76
2023/10/07 15:14:57;;;;;;;19.13;8.02;;;18.30;99.90;;;;;;4826254;29;20058;-75
2023/10/07 15:17:23;;;;;;;14.73;7.47;;;18.30;99.90;;;;;;4810884;29;20493;-76
2023/10/07 15:19:50;;;;;;;16.65;7.53;;;18.30;99.90;;;;;;4825664;29;20137;-76
2023/10/07 15:22:16;;;;;;;19.20;8.40;;;18.20;99.90;;;;;;4826884;29;20046;-75
2023/10/07 15:24:44;;;;;;;18.23;8.35;;;18.20;99.90;;;;;;4814716;29;20049;-76
2023/10/07 15:27:10;;;;;;;19.45;8.30;;;18.20;99.90;;;;;;4821312;29;20048;-76
2023/10/07 15:29:36;;;;;;;18.20;7.97;;;18.20;99.90;;;;;;4825562;29;20057;-77
2023/10/07 15:32:02;;;;;;;14.18;7.43;;;18.20;99.90;;;;;;4813138;29;20485;-77
2023/10/07 15:34:28;;;;;;;16.00;8.52;;;18.10;99.90;;;;;;4836357;29;20159;-77
2023/10/07 16:44:14;;;;;;;19.42;9.52;;;17.20;99.90;;;;;;5113387;23;20069;-76
2023/10/07 16:46:42;;;;;;;19.23;9.90;;;17.20;99.90;;;;;;4824700;29;20480;-76
2023/10/07 16:49:12;;;;;;;17.23;9.63;;;17.20;99.90;;;;;;4824911;29;20056;-76
2023/10/07 16:51:46;;;;;;;24.08;10.48;;;17.20;99.90;;;;;;4809123;29;20042;-76
2023/10/07 16:54:13;;;;;;;19.70;9.88;;;17.10;99.90;;;;;;4839494;29;20053;-76
2023/10/07 16:56:38;;;;;;;18.13;9.75;;;17.10;99.90;;;;;;4842775;29;20054;-76
2023/10/07 19:54:21;;;;;;;30.40;12.18;;;16.70;99.90;;;;;;5659362;23;20065;-83
2023/10/07 20:07:54;;;;;;;27.67;11.68;;;16.80;99.90;;;;;;4836374;29;20111;-78
2023/10/07 20:10:21;;;;;;;25.40;11.52;;;16.90;99.90;;;;;;4812551;29;20058;-78
2023/10/07 20:12:47;;;;;;;30.27;11.77;;;16.90;99.90;;;;;;4821499;29;20153;-78
2023/10/07 20:15:12;;;;;;;27.08;11.23;;;16.90;99.90;;;;;;4824992;29;20057;-78
2023/10/07 20:17:40;;;;;;;30.02;12.32;;;17.00;99.90;;;;;;4812736;29;20042;-78
2023/10/07 20:20:06;;;;;;;28.85;11.75;;;16.90;99.90;;;;;;4796993;29;20046;-78
2023/10/07 20:22:33;;;;;;;26.52;11.60;;;17.00;99.90;;;;;;4817260;29;20046;-78
2023/10/07 20:24:59;;;;;;;28.92;12.32;;;17.00;99.90;;;;;;4831976;29;20049;-78
2023/10/07 20:27:24;;;;;;;29.63;11.98;;;17.00;99.90;;;;;;4809603;29;20539;-78
2023/10/07 20:29:50;;;;;;;28.73;12.20;;;17.00;99.90;;;;;;4811699;29;20046;-77
2023/10/07 20:32:16;;;;;;;27.85;12.15;;;17.00;99.90;;;;;;4797349;29;20070;-78
2023/10/07 20:34:42;;;;;;;26.33;11.50;;;17.00;99.90;;;;;;4815196;29;20034;-79
2023/10/07 20:37:10;;;;;;;32.03;12.15;;;17.00;99.90;;;;;;4791437;29;20035;-79
2023/10/07 20:39:36;;;;;;;29.77;11.52;;;16.90;99.90;;;;;;4791439;29;20465;-79
2023/10/07 20:42:02;;;;;;;26.33;11.07;;;16.90;99.90;;;;;;4790464;29;20126;-78
2023/10/07 20:44:28;;;;;;;27.55;11.90;;;16.90;99.90;;;;;;4791568;29;20041;-78
2023/10/07 20:46:54;;;;;;;30.42;11.40;;;16.90;99.90;;;;;;4789692;29;20062;-78
2023/10/07 20:49:20;;;;;;;30.88;11.75;;;16.80;99.90;;;;;;4801296;29;20050;-79
2023/10/07 20:51:46;;;;;;;30.65;12.68;;;16.80;99.90;;;;;;4804537;29;20421;-78
2023/10/07 20:54:11;;;;;;;28.17;12.02;;;16.80;99.90;;;;;;4802613;29;20137;-79
2023/10/07 20:56:37;;;;;;;27.85;12.13;;;16.90;99.90;;;;;;4801982;29;20773;-78
2023/10/07 20:59:03;;;;;;;30.60;12.25;;;16.90;99.90;;;;;;4801865;29;20047;-79
2023/10/07 21:01:29;;;;;;;26.42;11.55;;;16.90;99.90;;;;;;4785905;29;20501;-78
2023/10/07 21:03:55;;;;;;;33.53;13.15;;;16.90;99.90;;;;;;4803975;29;20066;-78
2023/10/07 21:06:21;;;;;;;28.25;12.45;;;16.90;99.90;;;;;;4785388;29;20459;-78
2023/10/07 21:08:48;;;;;;;32.08;11.80;;;16.90;99.90;;;;;;4788846;29;20049;-79
2023/10/07 21:11:14;;;;;;;30.38;11.63;;;16.90;99.90;;;;;;4809332;29;20133;-79
2023/10/07 21:13:41;;;;;;;30.65;11.75;;;17.00;99.90;;;;;;4815500;29;20474;-79
2023/10/07 21:16:07;;;;;;;29.52;12.48;;;17.00;99.90;;;;;;4800442;29;20084;-79